createdAt,value
2018-07-11T00:00:37.000Z,35
2018-07-11T00:01:37.000Z,35
2018-07-11T00:02:37.000Z,35
2018-07-11T00:03:37.000Z,35
2018-07-11T00:04:37.000Z,35
2018-07-11T00:05:37.000Z,35
2018-07-11T00:07:37.000Z,35
2018-07-11T00:08:37.000Z,35
2018-07-11T00:09:37.000Z,35
2018-07-11T00:10:37.000Z,35
2018-07-11T00:11:37.000Z,35
2018-07-11T00:12:37.000Z,35
2018-07-11T00:13:37.000Z,35
2018-07-11T00:14:37.000Z,35
2018-07-11T00:16:37.000Z,35
2018-07-11T00:17:37.000Z,35
2018-07-11T00:19:37.000Z,35
2018-07-11T00:20:37.000Z,35
2018-07-11T00:21:37.000Z,35
2018-07-11T00:22:37.000Z,35
2018-07-11T00:24:37.000Z,35
2018-07-11T00:26:37.000Z,35
2018-07-11T00:27:37.000Z,35
2018-07-11T00:28:37.000Z,35
2018-07-11T00:29:37.000Z,35
2018-07-11T00:30:37.000Z,35
2018-07-11T00:31:37.000Z,35
2018-07-11T00:32:37.000Z,35
2018-07-11T00:33:37.000Z,35
2018-07-11T00:34:37.000Z,35
2018-07-11T00:35:37.000Z,35
2018-07-11T00:36:37.000Z,35
2018-07-11T00:37:37.000Z,35
2018-07-11T00:38:37.000Z,35
2018-07-11T00:39:37.000Z,35
2018-07-11T00:40:37.000Z,35
2018-07-11T00:41:37.000Z,35
2018-07-11T00:42:37.000Z,35
2018-07-11T00:43:37.000Z,35
2018-07-11T00:44:37.000Z,35
2018-07-11T00:45:37.000Z,35
2018-07-11T00:46:37.000Z,35
2018-07-11T00:47:37.000Z,35
2018-07-11T00:48:37.000Z,35
2018-07-11T00:49:37.000Z,35
2018-07-11T00:50:37.000Z,35
2018-07-11T00:51:37.000Z,35
2018-07-11T00:53:37.000Z,35
2018-07-11T00:54:37.000Z,35
2018-07-11T00:55:37.000Z,35
2018-07-11T00:57:37.000Z,35
2018-07-11T00:58:37.000Z,35
2018-07-11T00:59:37.000Z,35
2018-07-11T01:00:37.000Z,35
2018-07-11T01:01:37.000Z,35
2018-07-11T01:03:37.000Z,35
2018-07-11T01:04:37.000Z,35
2018-07-11T01:05:37.000Z,35
2018-07-11T01:06:37.000Z,35
2018-07-11T01:07:37.000Z,35
2018-07-11T01:09:37.000Z,35
2018-07-11T01:10:37.000Z,35
2018-07-11T01:11:37.000Z,35
2018-07-11T01:12:37.000Z,35
2018-07-11T01:13:37.000Z,35
2018-07-11T01:14:37.000Z,35
2018-07-11T01:16:37.000Z,35
2018-07-11T01:17:37.000Z,35
2018-07-11T01:18:37.000Z,35
2018-07-11T01:19:37.000Z,35
2018-07-11T01:20:37.000Z,35
2018-07-11T01:22:37.000Z,35
2018-07-11T01:23:37.000Z,35
2018-07-11T01:24:37.000Z,35
2018-07-11T01:25:37.000Z,35
2018-07-11T01:26:37.000Z,35
2018-07-11T01:28:37.000Z,35
2018-07-11T01:29:37.000Z,35
2018-07-11T01:30:37.000Z,35
2018-07-11T01:31:37.000Z,35
2018-07-11T01:32:37.000Z,35
2018-07-11T01:33:37.000Z,35
2018-07-11T01:34:37.000Z,35
2018-07-11T01:36:37.000Z,35
2018-07-11T01:37:37.000Z,35
2018-07-11T01:38:37.000Z,35
2018-07-11T01:40:37.000Z,35
2018-07-11T01:41:37.000Z,35
2018-07-11T01:42:37.000Z,35
2018-07-11T01:43:37.000Z,35
2018-07-11T01:45:37.000Z,35
2018-07-11T01:46:37.000Z,35
2018-07-11T01:47:37.000Z,35
2018-07-11T01:48:37.000Z,35
2018-07-11T01:49:37.000Z,35
2018-07-11T01:50:37.000Z,35
2018-07-11T01:52:37.000Z,35
2018-07-11T01:53:37.000Z,35
2018-07-11T01:54:37.000Z,35
2018-07-11T01:56:37.000Z,35
2018-07-11T01:58:37.000Z,35
2018-07-11T02:00:37.000Z,35
2018-07-11T02:01:37.000Z,35
2018-07-11T02:02:37.000Z,35
2018-07-11T02:03:37.000Z,35
2018-07-11T02:05:37.000Z,35
2018-07-11T02:06:37.000Z,35
2018-07-11T02:07:37.000Z,35
2018-07-11T02:08:37.000Z,35
2018-07-11T02:09:37.000Z,35
2018-07-11T02:10:37.000Z,35
2018-07-11T02:11:37.000Z,35
2018-07-11T02:12:37.000Z,35
2018-07-11T02:13:37.000Z,35
2018-07-11T02:14:37.000Z,35
2018-07-11T02:15:37.000Z,35
2018-07-11T02:16:37.000Z,35
2018-07-11T02:17:37.000Z,35
2018-07-11T02:19:37.000Z,35
2018-07-11T02:20:37.000Z,35
2018-07-11T02:21:37.000Z,35
2018-07-11T02:22:37.000Z,35
2018-07-11T02:23:37.000Z,35
2018-07-11T02:25:37.000Z,35
2018-07-11T02:26:37.000Z,35
2018-07-11T02:27:37.000Z,35
2018-07-11T02:28:37.000Z,35
2018-07-11T02:29:37.000Z,35
2018-07-11T02:30:37.000Z,35
2018-07-11T02:31:37.000Z,35
2018-07-11T02:32:37.000Z,35
2018-07-11T02:33:37.000Z,35
2018-07-11T02:35:37.000Z,35
2018-07-11T02:36:37.000Z,35
2018-07-11T02:37:37.000Z,35
2018-07-11T02:38:37.000Z,35
2018-07-11T02:39:37.000Z,35
2018-07-11T02:40:37.000Z,35
2018-07-11T02:41:37.000Z,35
2018-07-11T02:42:37.000Z,35
2018-07-11T02:43:37.000Z,35
2018-07-11T02:44:37.000Z,35
2018-07-11T02:46:37.000Z,35
2018-07-11T02:47:37.000Z,35
2018-07-11T02:48:37.000Z,35
2018-07-11T02:49:37.000Z,35
2018-07-11T02:50:37.000Z,35
2018-07-11T02:51:37.000Z,35
2018-07-11T02:52:37.000Z,35
2018-07-11T02:53:37.000Z,35
2018-07-11T02:54:37.000Z,35
2018-07-11T02:55:37.000Z,35
2018-07-11T02:56:37.000Z,35
2018-07-11T02:57:37.000Z,35
2018-07-11T02:58:37.000Z,35
2018-07-11T02:59:37.000Z,35
2018-07-11T03:00:37.000Z,35
2018-07-11T03:02:37.000Z,35
2018-07-11T03:03:37.000Z,35
2018-07-11T03:04:37.000Z,35
2018-07-11T03:05:37.000Z,35
2018-07-11T03:06:37.000Z,35
2018-07-11T03:07:37.000Z,35
2018-07-11T03:09:37.000Z,35
2018-07-11T03:10:37.000Z,35
2018-07-11T03:11:37.000Z,35
2018-07-11T03:13:37.000Z,35
2018-07-11T03:14:37.000Z,35
2018-07-11T03:15:37.000Z,35
2018-07-11T03:16:37.000Z,35
2018-07-11T03:17:37.000Z,35
2018-07-11T03:21:23.000Z,35
2018-07-11T03:22:23.000Z,35
2018-07-11T03:23:23.000Z,35
2018-07-11T03:24:23.000Z,36
2018-07-11T03:25:23.000Z,35
2018-07-11T03:27:23.000Z,35
2018-07-11T03:28:23.000Z,35
2018-07-11T03:30:23.000Z,35
2018-07-11T03:31:23.000Z,35
2018-07-11T03:32:23.000Z,35
2018-07-11T03:34:23.000Z,35
2018-07-11T03:35:23.000Z,35
2018-07-11T03:36:23.000Z,35
2018-07-11T03:37:23.000Z,35
2018-07-11T03:38:23.000Z,35
2018-07-11T03:39:23.000Z,35
2018-07-11T03:40:23.000Z,35
2018-07-11T03:41:23.000Z,35
2018-07-11T03:42:23.000Z,35
2018-07-11T03:43:23.000Z,35
2018-07-11T03:44:23.000Z,35
2018-07-11T03:45:23.000Z,35
2018-07-11T03:46:23.000Z,35
2018-07-11T03:48:23.000Z,35
2018-07-11T03:49:23.000Z,35
2018-07-11T03:50:23.000Z,35
2018-07-11T03:51:23.000Z,35
2018-07-11T03:52:23.000Z,35
2018-07-11T03:53:23.000Z,35
2018-07-11T03:54:23.000Z,35
2018-07-11T03:55:23.000Z,35
2018-07-11T03:56:23.000Z,35
2018-07-11T03:57:23.000Z,35
2018-07-11T03:58:23.000Z,35
2018-07-11T03:59:23.000Z,35
2018-07-11T04:00:23.000Z,35
2018-07-11T04:01:23.000Z,35
2018-07-11T04:02:23.000Z,35
2018-07-11T04:04:23.000Z,35
2018-07-11T04:05:23.000Z,35
2018-07-11T04:06:23.000Z,35
2018-07-11T04:07:23.000Z,35
2018-07-11T04:08:23.000Z,35
2018-07-11T04:09:23.000Z,35
2018-07-11T04:10:23.000Z,35
2018-07-11T04:11:23.000Z,35
2018-07-11T04:12:23.000Z,35
2018-07-11T04:13:23.000Z,35
2018-07-11T04:14:23.000Z,35
2018-07-11T04:15:23.000Z,35
2018-07-11T04:16:23.000Z,35
2018-07-11T04:17:23.000Z,35
2018-07-11T04:18:23.000Z,35
2018-07-11T04:19:23.000Z,35
2018-07-11T04:20:23.000Z,35
2018-07-11T04:21:23.000Z,35
2018-07-11T04:22:23.000Z,35
2018-07-11T04:23:23.000Z,35
2018-07-11T04:24:23.000Z,35
2018-07-11T04:25:23.000Z,35
2018-07-11T04:26:23.000Z,35
2018-07-11T04:27:23.000Z,35
2018-07-11T04:28:23.000Z,35
2018-07-11T04:29:23.000Z,35
2018-07-11T04:30:23.000Z,35
2018-07-11T04:31:23.000Z,35
2018-07-11T04:33:23.000Z,35
2018-07-11T04:34:23.000Z,35
2018-07-11T04:35:23.000Z,35
2018-07-11T04:36:23.000Z,35
2018-07-11T04:37:23.000Z,35
2018-07-11T04:38:23.000Z,36
2018-07-11T04:39:23.000Z,36
2018-07-11T04:40:23.000Z,36
2018-07-11T04:41:23.000Z,36
2018-07-11T04:42:23.000Z,37
2018-07-11T04:43:23.000Z,37
2018-07-11T04:44:23.000Z,37
2018-07-11T04:45:23.000Z,37
2018-07-11T04:46:23.000Z,37
2018-07-11T04:48:23.000Z,37
2018-07-11T04:49:23.000Z,37
2018-07-11T04:50:23.000Z,37
2018-07-11T04:51:23.000Z,37
2018-07-11T04:52:23.000Z,37
2018-07-11T04:53:23.000Z,37
2018-07-11T04:54:23.000Z,38
2018-07-11T04:55:23.000Z,37
2018-07-11T04:56:23.000Z,38
2018-07-11T04:58:23.000Z,38
2018-07-11T04:59:23.000Z,38
2018-07-11T05:00:23.000Z,38
2018-07-11T05:01:23.000Z,38
2018-07-11T05:02:23.000Z,38
2018-07-11T05:04:23.000Z,38
2018-07-11T05:05:23.000Z,38
2018-07-11T05:06:23.000Z,38
2018-07-11T05:07:23.000Z,38
2018-07-11T05:08:23.000Z,38
2018-07-11T05:09:23.000Z,38
2018-07-11T05:10:23.000Z,38
2018-07-11T05:12:23.000Z,38
2018-07-11T05:13:23.000Z,38
2018-07-11T05:14:23.000Z,38
2018-07-11T05:15:23.000Z,38
2018-07-11T05:16:23.000Z,38
2018-07-11T05:17:23.000Z,38
2018-07-11T05:18:23.000Z,38
2018-07-11T05:19:23.000Z,38
2018-07-11T05:20:23.000Z,38
2018-07-11T05:21:23.000Z,38
2018-07-11T05:22:23.000Z,38
2018-07-11T05:23:23.000Z,38
2018-07-11T05:24:23.000Z,38
2018-07-11T05:25:23.000Z,38
2018-07-11T05:26:23.000Z,38
2018-07-11T05:27:23.000Z,38
2018-07-11T05:28:23.000Z,38
2018-07-11T05:29:23.000Z,38
2018-07-11T05:30:23.000Z,39
2018-07-11T05:32:23.000Z,39
2018-07-11T05:33:23.000Z,39
2018-07-11T05:34:23.000Z,39
2018-07-11T05:35:23.000Z,39
2018-07-11T05:36:23.000Z,39
2018-07-11T05:39:25.000Z,39
2018-07-11T05:40:25.000Z,39
2018-07-11T05:42:25.000Z,38
2018-07-11T05:43:25.000Z,38
2018-07-11T05:44:25.000Z,38
2018-07-11T05:45:25.000Z,38
2018-07-11T05:46:25.000Z,38
2018-07-11T05:47:25.000Z,38
2018-07-11T05:49:25.000Z,38
2018-07-11T05:50:25.000Z,38
2018-07-11T05:52:26.000Z,38
2018-07-11T05:53:26.000Z,38
2018-07-11T05:54:26.000Z,38
2018-07-11T05:55:26.000Z,38
2018-07-11T05:56:26.000Z,38
2018-07-11T05:57:26.000Z,38
2018-07-11T05:59:26.000Z,38
2018-07-11T06:00:26.000Z,38
2018-07-11T06:02:26.000Z,38
2018-07-11T06:04:26.000Z,38
2018-07-11T06:05:26.000Z,38
2018-07-11T06:07:26.000Z,38
2018-07-11T06:08:26.000Z,38
2018-07-11T06:09:26.000Z,38
2018-07-11T06:10:26.000Z,39
2018-07-11T06:11:26.000Z,39
2018-07-11T06:12:26.000Z,38
2018-07-11T06:13:26.000Z,38
2018-07-11T06:14:26.000Z,38
2018-07-11T06:15:26.000Z,38
2018-07-11T06:16:26.000Z,38
2018-07-11T06:17:26.000Z,38
2018-07-11T06:18:26.000Z,38
2018-07-11T06:19:26.000Z,38
2018-07-11T06:20:26.000Z,39
2018-07-11T06:21:26.000Z,39
2018-07-11T06:22:26.000Z,38
2018-07-11T06:24:26.000Z,38
2018-07-11T06:25:26.000Z,39
2018-07-11T06:26:26.000Z,39
2018-07-11T06:27:26.000Z,39
2018-07-11T06:28:26.000Z,39
2018-07-11T06:29:26.000Z,39
2018-07-11T06:30:26.000Z,39
2018-07-11T06:32:26.000Z,39
2018-07-11T06:34:26.000Z,39
2018-07-11T06:36:26.000Z,39
2018-07-11T06:37:26.000Z,39
2018-07-11T06:38:26.000Z,39
2018-07-11T06:40:26.000Z,39
2018-07-11T06:41:26.000Z,39
2018-07-11T06:43:26.000Z,39
2018-07-11T06:44:26.000Z,39
2018-07-11T06:45:26.000Z,39
2018-07-11T06:46:26.000Z,39
2018-07-11T06:47:26.000Z,39
2018-07-11T06:48:26.000Z,39
2018-07-11T06:49:26.000Z,39
2018-07-11T06:50:26.000Z,39
2018-07-11T06:51:26.000Z,39
2018-07-11T06:52:26.000Z,39
2018-07-11T06:53:26.000Z,39
2018-07-11T06:54:25.000Z,39
2018-07-11T06:56:25.000Z,38
2018-07-11T06:57:25.000Z,38
2018-07-11T06:58:25.000Z,38
2018-07-11T06:59:25.000Z,38
2018-07-11T07:00:25.000Z,38
2018-07-11T07:01:25.000Z,37
2018-07-11T07:02:25.000Z,37
2018-07-11T07:03:25.000Z,37
2018-07-11T07:04:25.000Z,37
2018-07-11T07:05:25.000Z,37
2018-07-11T07:06:25.000Z,37
2018-07-11T07:07:25.000Z,37
2018-07-11T07:08:25.000Z,37
2018-07-11T07:09:25.000Z,37
2018-07-11T07:10:25.000Z,37
2018-07-11T07:11:25.000Z,37
2018-07-11T07:12:25.000Z,36
2018-07-11T07:14:25.000Z,36
2018-07-11T07:15:25.000Z,36
2018-07-11T07:16:25.000Z,36
2018-07-11T07:17:25.000Z,36
2018-07-11T07:18:25.000Z,36
2018-07-11T07:19:25.000Z,36
2018-07-11T07:21:25.000Z,35
2018-07-11T07:22:25.000Z,36
2018-07-11T07:23:25.000Z,36
2018-07-11T07:24:25.000Z,35
2018-07-11T07:25:25.000Z,35
2018-07-11T07:27:25.000Z,35
2018-07-11T07:28:25.000Z,35
2018-07-11T07:29:25.000Z,35
2018-07-11T07:30:25.000Z,35
2018-07-11T07:31:25.000Z,35
2018-07-11T07:32:25.000Z,35
2018-07-11T07:33:25.000Z,35
2018-07-11T07:34:25.000Z,35
2018-07-11T07:35:25.000Z,35
2018-07-11T07:36:25.000Z,35
2018-07-11T07:37:25.000Z,35
2018-07-11T07:38:25.000Z,35
2018-07-11T07:39:25.000Z,35
2018-07-11T07:40:25.000Z,34
2018-07-11T07:41:25.000Z,34
2018-07-11T07:42:25.000Z,34
2018-07-11T07:43:25.000Z,34
2018-07-11T07:44:25.000Z,34
2018-07-11T07:45:25.000Z,34
2018-07-11T07:47:25.000Z,34
2018-07-11T07:48:25.000Z,34
2018-07-11T07:49:25.000Z,34
2018-07-11T07:51:25.000Z,34
2018-07-11T07:52:25.000Z,34
2018-07-11T07:54:25.000Z,34
2018-07-11T07:55:25.000Z,34
2018-07-11T07:56:25.000Z,34
2018-07-11T07:58:26.000Z,34
2018-07-11T07:59:26.000Z,34
2018-07-11T08:00:26.000Z,34
2018-07-11T08:01:26.000Z,34
2018-07-11T08:02:26.000Z,34
2018-07-11T08:03:26.000Z,34
2018-07-11T08:05:26.000Z,33
2018-07-11T08:06:26.000Z,34
2018-07-11T08:08:26.000Z,33
2018-07-11T08:09:26.000Z,34
2018-07-11T08:10:26.000Z,33
2018-07-11T08:11:26.000Z,34
2018-07-11T08:12:26.000Z,34
2018-07-11T08:13:26.000Z,33
2018-07-11T08:14:26.000Z,33
2018-07-11T08:15:26.000Z,33
2018-07-11T08:16:26.000Z,33
2018-07-11T08:17:26.000Z,33
2018-07-11T08:18:26.000Z,33
2018-07-11T08:19:26.000Z,33
2018-07-11T08:20:26.000Z,33
2018-07-11T08:21:26.000Z,33
2018-07-11T08:22:26.000Z,33
2018-07-11T08:23:26.000Z,33
2018-07-11T08:24:26.000Z,33
2018-07-11T08:25:26.000Z,33
2018-07-11T08:26:26.000Z,33
2018-07-11T08:27:26.000Z,33
2018-07-11T08:28:26.000Z,33
2018-07-11T08:29:26.000Z,33
2018-07-11T08:30:26.000Z,33
2018-07-11T08:31:26.000Z,33
2018-07-11T08:32:26.000Z,33
2018-07-11T08:33:26.000Z,33
2018-07-11T08:34:26.000Z,33
2018-07-11T08:35:26.000Z,33
2018-07-11T08:36:26.000Z,33
2018-07-11T08:37:26.000Z,33
2018-07-11T08:38:26.000Z,33
2018-07-11T08:39:26.000Z,33
2018-07-11T08:40:26.000Z,33
2018-07-11T08:41:26.000Z,33
2018-07-11T08:42:26.000Z,33
2018-07-11T08:43:26.000Z,33
2018-07-11T08:45:26.000Z,33
2018-07-11T08:46:26.000Z,33
2018-07-11T08:47:26.000Z,33
2018-07-11T08:49:26.000Z,32
2018-07-11T08:51:26.000Z,32
2018-07-11T08:52:26.000Z,32
2018-07-11T08:53:26.000Z,33
2018-07-11T08:54:26.000Z,32
2018-07-11T08:55:26.000Z,32
2018-07-11T08:57:26.000Z,32
2018-07-11T08:58:26.000Z,32
2018-07-11T08:59:26.000Z,32
2018-07-11T09:00:26.000Z,32
2018-07-11T09:01:26.000Z,32
2018-07-11T09:02:26.000Z,32
2018-07-11T09:03:26.000Z,32
2018-07-11T09:04:26.000Z,32
2018-07-11T09:05:26.000Z,32
2018-07-11T09:06:26.000Z,32
2018-07-11T09:07:26.000Z,32
2018-07-11T09:08:26.000Z,32
2018-07-11T09:09:26.000Z,32
2018-07-11T09:10:26.000Z,32
2018-07-11T09:11:26.000Z,32
2018-07-11T09:13:26.000Z,32
2018-07-11T09:14:26.000Z,32
2018-07-11T09:15:26.000Z,32
2018-07-11T09:16:26.000Z,32
2018-07-11T09:17:26.000Z,32
2018-07-11T09:18:26.000Z,32
2018-07-11T09:19:26.000Z,32
2018-07-11T09:20:26.000Z,32
2018-07-11T09:21:26.000Z,32
2018-07-11T09:23:26.000Z,31
2018-07-11T09:25:26.000Z,31
2018-07-11T09:26:26.000Z,31
2018-07-11T09:27:26.000Z,31
2018-07-11T09:28:26.000Z,31
2018-07-11T09:29:26.000Z,31
2018-07-11T09:30:26.000Z,31
2018-07-11T09:31:26.000Z,31
2018-07-11T09:32:26.000Z,31
2018-07-11T09:33:26.000Z,31
2018-07-11T09:34:26.000Z,31
2018-07-11T09:35:26.000Z,31
2018-07-11T09:36:26.000Z,29
2018-07-11T09:37:26.000Z,28
2018-07-11T09:39:26.000Z,28
2018-07-11T09:40:26.000Z,28
2018-07-11T09:42:26.000Z,28
2018-07-11T09:43:26.000Z,28
2018-07-11T09:44:26.000Z,28
2018-07-11T09:46:26.000Z,28
2018-07-11T09:47:26.000Z,28
2018-07-11T09:48:26.000Z,28
2018-07-11T09:49:26.000Z,28
2018-07-11T09:50:26.000Z,28
2018-07-11T09:52:26.000Z,28
2018-07-11T09:53:26.000Z,28
2018-07-11T09:54:26.000Z,28
2018-07-11T09:55:26.000Z,28
2018-07-11T09:56:26.000Z,29
2018-07-11T09:58:26.000Z,29
2018-07-11T09:59:26.000Z,29
2018-07-11T10:01:26.000Z,29
2018-07-11T10:02:26.000Z,29
2018-07-11T10:03:26.000Z,29
2018-07-11T10:05:26.000Z,30
2018-07-11T10:06:26.000Z,30
2018-07-11T10:07:26.000Z,30
2018-07-11T10:08:26.000Z,30
2018-07-11T10:09:26.000Z,30
2018-07-11T10:10:26.000Z,30
2018-07-11T10:11:26.000Z,30
2018-07-11T10:12:26.000Z,31
2018-07-11T10:13:26.000Z,31
2018-07-11T10:15:26.000Z,31
2018-07-11T10:16:26.000Z,31
2018-07-11T10:18:26.000Z,31
2018-07-11T10:19:26.000Z,31
2018-07-11T10:20:26.000Z,31
2018-07-11T10:21:26.000Z,31
2018-07-11T10:22:26.000Z,31
2018-07-11T10:24:26.000Z,31
2018-07-11T10:25:26.000Z,31
2018-07-11T10:26:26.000Z,31
2018-07-11T10:27:26.000Z,31
2018-07-11T10:28:26.000Z,31
2018-07-11T10:30:26.000Z,31
2018-07-11T10:31:26.000Z,32
2018-07-11T10:32:26.000Z,32
2018-07-11T10:33:26.000Z,32
2018-07-11T10:34:26.000Z,32
2018-07-11T10:35:26.000Z,32
2018-07-11T10:36:26.000Z,32
2018-07-11T10:37:26.000Z,32
2018-07-11T10:39:26.000Z,32
2018-07-11T10:40:26.000Z,32
2018-07-11T10:41:26.000Z,32
2018-07-11T10:42:26.000Z,32
2018-07-11T10:43:26.000Z,32
2018-07-11T10:45:26.000Z,32
2018-07-11T10:46:26.000Z,32
2018-07-11T10:47:26.000Z,32
2018-07-11T10:48:26.000Z,32
2018-07-11T10:49:26.000Z,32
2018-07-11T10:51:26.000Z,32
2018-07-11T10:52:26.000Z,32
2018-07-11T10:53:26.000Z,32
2018-07-11T10:55:26.000Z,32
2018-07-11T10:56:26.000Z,32
2018-07-11T10:57:26.000Z,32
2018-07-11T10:58:26.000Z,32
2018-07-11T10:59:26.000Z,32
2018-07-11T11:00:26.000Z,32
2018-07-11T11:01:26.000Z,32
2018-07-11T11:02:26.000Z,32
2018-07-11T11:03:26.000Z,32
2018-07-11T11:04:26.000Z,32
2018-07-11T11:08:12.000Z,32
2018-07-11T11:09:12.000Z,32
2018-07-11T11:10:12.000Z,33
2018-07-11T11:11:12.000Z,33
2018-07-11T11:12:12.000Z,33
2018-07-11T11:13:12.000Z,33
2018-07-11T11:14:12.000Z,33
2018-07-11T11:15:12.000Z,33
2018-07-11T11:16:12.000Z,33
2018-07-11T11:17:12.000Z,33
2018-07-11T11:18:12.000Z,33
2018-07-11T11:19:12.000Z,33
2018-07-11T11:20:12.000Z,33
2018-07-11T11:21:12.000Z,32
2018-07-11T11:22:12.000Z,32
2018-07-11T11:23:12.000Z,32
2018-07-11T11:25:12.000Z,32
2018-07-11T11:26:12.000Z,32
2018-07-11T11:27:12.000Z,32
2018-07-11T11:28:12.000Z,32
2018-07-11T11:29:12.000Z,32
2018-07-11T11:30:12.000Z,32
2018-07-11T11:31:12.000Z,32
2018-07-11T11:32:12.000Z,31
2018-07-11T11:33:12.000Z,31
2018-07-11T11:34:12.000Z,31
2018-07-11T11:35:12.000Z,31
2018-07-11T11:36:12.000Z,31
2018-07-11T11:37:12.000Z,31
2018-07-11T11:38:12.000Z,32
2018-07-11T11:39:12.000Z,32
2018-07-11T11:40:12.000Z,32
2018-07-11T11:41:12.000Z,32
2018-07-11T11:42:12.000Z,32
2018-07-11T11:43:12.000Z,32
2018-07-11T11:44:12.000Z,32
2018-07-11T11:45:12.000Z,32
2018-07-11T11:46:12.000Z,32
2018-07-11T11:47:12.000Z,32
2018-07-11T11:48:12.000Z,32
2018-07-11T11:49:12.000Z,32
2018-07-11T11:50:12.000Z,32
2018-07-11T11:51:12.000Z,32
2018-07-11T11:52:12.000Z,33
2018-07-11T11:53:12.000Z,33
2018-07-11T11:54:12.000Z,33
2018-07-11T11:55:12.000Z,33
2018-07-11T11:56:12.000Z,33
2018-07-11T11:57:12.000Z,33
2018-07-11T11:59:12.000Z,33
2018-07-11T12:00:12.000Z,33
2018-07-11T12:01:12.000Z,33
2018-07-11T12:02:12.000Z,33
2018-07-11T12:03:12.000Z,33
2018-07-11T12:04:12.000Z,33
2018-07-11T12:06:12.000Z,33
2018-07-11T12:07:12.000Z,33
2018-07-11T12:08:12.000Z,33
2018-07-11T12:09:12.000Z,33
2018-07-11T12:10:12.000Z,34
2018-07-11T12:12:12.000Z,34
2018-07-11T12:13:12.000Z,34
2018-07-11T12:14:12.000Z,34
2018-07-11T12:15:12.000Z,34
2018-07-11T12:16:12.000Z,34
2018-07-11T12:17:12.000Z,34
2018-07-11T12:18:12.000Z,35
2018-07-11T12:19:12.000Z,34
2018-07-11T12:20:12.000Z,35
2018-07-11T12:21:12.000Z,35
2018-07-11T12:22:12.000Z,35
2018-07-11T12:23:12.000Z,35
2018-07-11T12:24:12.000Z,35
2018-07-11T12:25:12.000Z,35
2018-07-11T12:27:12.000Z,35
2018-07-11T12:28:12.000Z,35
2018-07-11T12:30:12.000Z,35
2018-07-11T12:31:12.000Z,35
2018-07-11T12:32:12.000Z,35
2018-07-11T12:33:12.000Z,35
2018-07-11T12:35:12.000Z,35
2018-07-11T12:36:12.000Z,35
2018-07-11T12:37:12.000Z,35
2018-07-11T12:38:12.000Z,36
2018-07-11T12:39:12.000Z,36
2018-07-11T12:40:12.000Z,35
2018-07-11T12:41:12.000Z,35
2018-07-11T12:42:12.000Z,35
2018-07-11T12:43:12.000Z,35
2018-07-11T12:44:12.000Z,35
2018-07-11T12:46:12.000Z,35
2018-07-11T12:47:12.000Z,35
2018-07-11T12:48:12.000Z,36
2018-07-11T12:49:12.000Z,36
2018-07-11T12:50:12.000Z,36
2018-07-11T12:52:12.000Z,36
2018-07-11T12:53:12.000Z,36
2018-07-11T12:54:12.000Z,36
2018-07-11T12:55:12.000Z,36
2018-07-11T12:56:12.000Z,36
2018-07-11T12:57:12.000Z,36
2018-07-11T12:58:12.000Z,37
2018-07-11T12:59:12.000Z,37
2018-07-11T13:00:12.000Z,37
2018-07-11T13:01:12.000Z,37
2018-07-11T13:02:12.000Z,37
2018-07-11T13:03:12.000Z,38
2018-07-11T13:04:12.000Z,38
2018-07-11T13:05:12.000Z,38
2018-07-11T13:06:12.000Z,38
2018-07-11T13:07:12.000Z,38
2018-07-11T13:08:12.000Z,38
2018-07-11T13:09:12.000Z,38
2018-07-11T13:10:12.000Z,38
2018-07-11T13:11:12.000Z,39
2018-07-11T13:12:12.000Z,39
2018-07-11T13:14:12.000Z,39
2018-07-11T13:16:12.000Z,39
2018-07-11T13:17:12.000Z,39
2018-07-11T13:18:12.000Z,39
2018-07-11T13:19:12.000Z,39
2018-07-11T13:20:12.000Z,39
2018-07-11T13:21:12.000Z,39
2018-07-11T13:23:12.000Z,39
2018-07-11T13:24:12.000Z,40
2018-07-11T13:25:12.000Z,39
2018-07-11T13:26:12.000Z,40
2018-07-11T13:27:12.000Z,40
2018-07-11T13:28:12.000Z,40
2018-07-11T13:29:12.000Z,40
2018-07-11T13:31:12.000Z,40
2018-07-11T13:32:12.000Z,40
2018-07-11T13:33:12.000Z,40
2018-07-11T13:34:12.000Z,41
2018-07-11T13:35:12.000Z,41
2018-07-11T13:36:12.000Z,40
2018-07-11T13:38:12.000Z,41
2018-07-11T13:39:12.000Z,41
2018-07-11T13:40:12.000Z,41
2018-07-11T13:41:12.000Z,41
2018-07-11T13:42:12.000Z,41
2018-07-11T13:43:12.000Z,41
2018-07-11T13:44:12.000Z,41
2018-07-11T13:45:12.000Z,41
2018-07-11T13:46:12.000Z,41
2018-07-11T13:47:12.000Z,41
2018-07-11T13:48:12.000Z,42
2018-07-11T13:49:12.000Z,42
2018-07-11T13:50:12.000Z,42
2018-07-11T13:51:12.000Z,42
2018-07-11T13:52:12.000Z,42
2018-07-11T13:53:12.000Z,42
2018-07-11T13:54:12.000Z,42
2018-07-11T13:55:12.000Z,42
2018-07-11T13:56:12.000Z,42
2018-07-11T13:57:12.000Z,42
2018-07-11T13:58:12.000Z,42
2018-07-11T13:59:12.000Z,42
2018-07-11T14:01:12.000Z,43
2018-07-11T14:02:12.000Z,43
2018-07-11T14:03:12.000Z,43
2018-07-11T14:04:12.000Z,43
2018-07-11T14:05:12.000Z,43
2018-07-11T14:06:12.000Z,43
2018-07-11T14:07:12.000Z,43
2018-07-11T14:08:12.000Z,43
2018-07-11T14:09:12.000Z,43
2018-07-11T14:10:12.000Z,43
2018-07-11T14:11:12.000Z,43
2018-07-11T14:12:12.000Z,43
2018-07-11T14:13:12.000Z,43
2018-07-11T14:14:12.000Z,43
2018-07-11T14:15:12.000Z,43
2018-07-11T14:16:12.000Z,43
2018-07-11T14:18:12.000Z,43
2018-07-11T14:19:12.000Z,43
2018-07-11T14:21:12.000Z,43
2018-07-11T14:22:12.000Z,43
2018-07-11T14:23:12.000Z,43
2018-07-11T14:24:12.000Z,43
2018-07-11T14:25:12.000Z,43
2018-07-11T14:26:12.000Z,43
2018-07-11T14:27:12.000Z,43
2018-07-11T14:28:12.000Z,43
2018-07-11T14:29:12.000Z,43
2018-07-11T14:30:12.000Z,43
2018-07-11T14:32:12.000Z,43
2018-07-11T14:33:12.000Z,43
2018-07-11T14:34:12.000Z,43
2018-07-11T14:36:12.000Z,43
2018-07-11T14:37:12.000Z,43
2018-07-11T14:38:12.000Z,43
2018-07-11T14:39:12.000Z,43
2018-07-11T14:40:12.000Z,43
2018-07-11T14:41:12.000Z,43
2018-07-11T14:42:12.000Z,43
2018-07-11T14:43:12.000Z,43
2018-07-11T14:44:12.000Z,43
2018-07-11T14:45:12.000Z,43
2018-07-11T14:46:12.000Z,43
2018-07-11T14:47:12.000Z,43
2018-07-11T14:48:12.000Z,43
2018-07-11T14:50:12.000Z,42
2018-07-11T14:51:12.000Z,42
2018-07-11T14:52:12.000Z,42
2018-07-11T14:53:12.000Z,42
2018-07-11T14:54:12.000Z,42
2018-07-11T14:56:12.000Z,41
2018-07-11T14:57:12.000Z,42
2018-07-11T14:58:12.000Z,42
2018-07-11T14:59:12.000Z,42
2018-07-11T15:00:12.000Z,41
2018-07-11T15:01:12.000Z,41
2018-07-11T15:03:12.000Z,41
2018-07-11T15:05:12.000Z,41
2018-07-11T15:06:12.000Z,41
2018-07-11T15:07:12.000Z,41
2018-07-11T15:08:12.000Z,41
2018-07-11T15:09:12.000Z,41
2018-07-11T15:10:12.000Z,41
2018-07-11T15:12:12.000Z,41
2018-07-11T15:14:12.000Z,40
2018-07-11T15:15:12.000Z,40
2018-07-11T15:16:12.000Z,40
2018-07-11T15:17:12.000Z,40
2018-07-11T15:19:12.000Z,40
2018-07-11T15:20:12.000Z,40
2018-07-11T15:21:12.000Z,40
2018-07-11T15:22:12.000Z,40
2018-07-11T15:23:12.000Z,40
2018-07-11T15:25:12.000Z,40
2018-07-11T15:26:12.000Z,40
2018-07-11T15:27:12.000Z,40
2018-07-11T15:28:12.000Z,40
2018-07-11T15:29:12.000Z,40
2018-07-11T15:30:12.000Z,40
2018-07-11T15:31:12.000Z,40
2018-07-11T15:32:13.000Z,40
2018-07-11T15:33:13.000Z,40
2018-07-11T15:34:13.000Z,40
2018-07-11T15:36:13.000Z,39
2018-07-11T15:37:13.000Z,40
2018-07-11T15:38:13.000Z,40
2018-07-11T15:39:13.000Z,39
2018-07-11T15:40:13.000Z,39
2018-07-11T15:41:13.000Z,39
2018-07-11T15:42:13.000Z,39
2018-07-11T15:43:13.000Z,39
2018-07-11T15:44:13.000Z,39
2018-07-11T15:46:13.000Z,39
2018-07-11T15:47:13.000Z,39
2018-07-11T15:48:13.000Z,39
2018-07-11T15:49:13.000Z,39
2018-07-11T15:50:13.000Z,39
2018-07-11T15:51:13.000Z,39
2018-07-11T15:52:13.000Z,39
2018-07-11T15:53:13.000Z,39
2018-07-11T15:54:13.000Z,39
2018-07-11T15:56:13.000Z,39
2018-07-11T15:57:13.000Z,39
2018-07-11T15:58:13.000Z,39
2018-07-11T15:59:13.000Z,39
2018-07-11T16:00:13.000Z,39
2018-07-11T16:01:13.000Z,39
2018-07-11T16:02:13.000Z,39
2018-07-11T16:03:13.000Z,39
2018-07-11T16:04:13.000Z,39
2018-07-11T16:05:13.000Z,39
2018-07-11T16:06:13.000Z,39
2018-07-11T16:08:13.000Z,39
2018-07-11T16:09:13.000Z,39
2018-07-11T16:10:13.000Z,39
2018-07-11T16:11:13.000Z,39
2018-07-11T16:12:13.000Z,39
2018-07-11T16:13:13.000Z,39
2018-07-11T16:14:13.000Z,39
2018-07-11T16:15:13.000Z,39
2018-07-11T16:16:13.000Z,38
2018-07-11T16:17:13.000Z,38